Time;durP1;ratioP1;P1;durP2;ratioP2;P2;SDS_P1;SDS_P2;PMS_P1;PMS_P2;Temp;Humidity;BMP_temperature;BMP_pressure;BME280_temperature;BME280_humidity;BME280_pressure;Samples;Min_cycle;Max_cycle;Signal;HPM_P1;HPM_P2
2022/01/03 00:04:53;;;;;;;1.40;0.60;;;11.40;99.90;;;;;;10520982;28;20429;-63
2022/01/03 00:09:57;;;;;;;1.63;0.43;;;11.40;99.90;;;;;;10520368;28;20032;-64
2022/01/03 00:14:58;;;;;;;4.78;0.90;;;11.40;99.90;;;;;;10533833;28;20031;-65
2022/01/03 00:19:59;;;;;;;4.57;1.10;;;11.50;99.90;;;;;;10509499;28;20025;-63
2022/01/03 00:25:06;;;;;;;3.53;1.00;;;11.30;99.90;;;;;;10527252;28;20058;-64
2022/01/03 00:30:07;;;;;;;3.28;0.90;;;11.30;99.90;;;;;;10526851;28;20032;-64
2022/01/03 00:35:08;;;;;;;6.18;0.60;;;11.30;99.90;;;;;;10527094;28;20082;-64
2022/01/03 00:40:09;;;;;;;3.58;1.05;;;11.30;99.90;;;;;;10527865;28;20107;-64
2022/01/03 00:45:11;;;;;;;8.10;1.60;;;11.30;99.90;;;;;;10526676;28;20024;-64
2022/01/03 00:50:15;;;;;;;8.25;1.08;;;11.30;99.90;;;;;;10526550;28;20029;-64
2022/01/03 00:55:16;;;;;;;9.07;1.17;;;11.30;99.90;;;;;;10526408;28;20031;-64
2022/01/03 01:00:18;;;;;;;4.25;0.90;;;11.30;99.90;;;;;;10512643;28;20053;-63
2022/01/03 01:05:20;;;;;;;2.67;0.88;;;11.30;99.90;;;;;;10514380;28;20086;-63
2022/01/03 01:10:21;;;;;;;9.10;0.95;;;11.30;99.90;;;;;;10515575;28;20512;-64
2022/01/03 01:15:24;;;;;;;9.43;2.30;;;11.30;99.90;;;;;;10536902;28;20385;-65
2022/01/03 01:20:26;;;;;;;6.35;1.10;;;11.30;99.90;;;;;;10530855;28;20035;-64
2022/01/03 01:27:47;;;;;;;7.75;1.25;;;11.30;99.90;;;;;;10535610;28;20105;-63
2022/01/03 01:30:50;;;;;;;3.92;0.80;;;11.50;99.90;;;;;;10531854;28;20036;-65
2022/01/03 01:36:00;;;;;;;6.93;1.48;;;11.30;99.90;;;;;;10531779;28;20035;-64
2022/01/03 01:41:04;;;;;;;9.02;1.38;;;11.30;99.90;;;;;;10534054;28;20083;-64
2022/01/03 01:46:09;;;;;;;6.50;1.02;;;11.30;99.90;;;;;;10533848;28;20063;-62
2022/01/03 01:51:11;;;;;;;5.95;1.25;;;11.30;99.90;;;;;;10534711;28;20020;-62
2022/01/03 01:56:22;;;;;;;3.10;1.00;;;11.30;99.90;;;;;;10532630;28;20239;-62
2022/01/03 02:01:34;;;;;;;5.28;1.25;;;11.30;99.90;;;;;;10515898;28;20324;-65
2022/01/03 02:06:48;;;;;;;5.22;1.10;;;11.30;99.90;;;;;;10510342;28;20033;-63
2022/01/03 02:11:53;;;;;;;3.47;1.25;;;11.30;99.90;;;;;;10534139;28;20016;-63
2022/01/03 02:16:54;;;;;;;4.30;1.00;;;11.30;99.90;;;;;;10516553;28;20032;-61
2022/01/03 02:21:55;;;;;;;6.70;1.13;;;11.30;99.90;;;;;;10521601;28;20042;-60
2022/01/03 02:26:56;;;;;;;5.97;1.20;;;11.20;99.90;;;;;;10533094;28;20111;-60
2022/01/03 02:31:57;;;;;;;6.90;1.60;;;11.20;99.90;;;;;;10530842;28;20028;-60
2022/01/03 02:36:58;;;;;;;8.93;1.35;;;11.20;99.90;;;;;;10530972;28;20251;-62
2022/01/03 02:41:58;;;;;;;11.18;1.63;;;11.20;99.90;;;;;;10531989;28;20040;-62
2022/01/03 02:46:59;;;;;;;6.53;1.92;;;11.20;99.90;;;;;;10530175;28;20146;-61
2022/01/03 02:52:00;;;;;;;6.82;1.02;;;11.20;99.90;;;;;;10511803;28;20028;-64
2022/01/03 02:57:01;;;;;;;5.72;1.20;;;11.10;99.90;;;;;;10511489;28;20042;-63
2022/01/03 03:02:02;;;;;;;5.07;1.00;;;11.10;99.90;;;;;;10515663;28;20098;-61
2022/01/03 03:07:18;;;;;;;6.22;0.95;;;11.10;99.90;;;;;;10515424;28;20027;-61
2022/01/03 03:12:19;;;;;;;8.35;1.10;;;11.10;99.90;;;;;;10534842;28;20556;-61
2022/01/03 03:17:20;;;;;;;3.63;1.00;;;11.10;99.90;;;;;;10516780;28;20071;-64
2022/01/03 03:22:23;;;;;;;8.85;2.03;;;11.10;99.90;;;;;;10522380;28;20055;-60
2022/01/03 03:27:24;;;;;;;8.38;1.58;;;11.10;99.90;;;;;;10528775;28;20047;-63
2022/01/03 03:32:26;;;;;;;12.32;1.70;;;11.20;99.90;;;;;;10527677;28;20104;-63
2022/01/03 03:37:27;;;;;;;6.15;1.20;;;11.00;99.90;;;;;;10528494;28;20371;-64
2022/01/03 03:42:28;;;;;;;6.80;1.35;;;11.10;99.90;;;;;;10529759;28;20246;-64
2022/01/03 03:47:28;;;;;;;5.85;1.42;;;11.10;99.90;;;;;;10528008;28;20024;-61
2022/01/03 03:52:29;;;;;;;7.18;1.17;;;11.20;99.90;;;;;;10527839;28;20111;-62
2022/01/03 03:57:30;;;;;;;8.05;1.55;;;11.00;99.90;;;;;;10527437;28;20474;-62
2022/01/03 04:02:30;;;;;;;10.02;1.60;;;11.10;99.90;;;;;;10513894;28;20059;-64
2022/01/03 04:07:31;;;;;;;10.18;1.45;;;11.00;99.90;;;;;;10514076;28;20043;-62
2022/01/03 04:12:32;;;;;;;4.30;1.23;;;11.10;99.90;;;;;;10531416;28;20036;-63
2022/01/03 04:17:33;;;;;;;9.63;1.80;;;11.00;99.90;;;;;;10511745;28;20464;-61
2022/01/03 04:22:34;;;;;;;6.75;1.75;;;11.00;99.90;;;;;;10523374;28;20434;-63
2022/01/03 04:27:34;;;;;;;9.25;1.40;;;11.00;99.90;;;;;;10527327;28;20024;-63
2022/01/03 04:32:35;;;;;;;5.15;1.63;;;11.00;99.90;;;;;;10527456;28;20126;-64
2022/01/03 04:37:36;;;;;;;6.72;1.58;;;11.00;99.90;;;;;;10525700;28;20020;-62
2022/01/03 04:42:37;;;;;;;7.45;1.23;;;11.00;99.90;;;;;;10527037;28;20050;-64
2022/01/03 04:47:38;;;;;;;10.02;1.60;;;11.00;99.90;;;;;;10533699;28;20043;-64
2022/01/03 04:52:38;;;;;;;8.05;1.33;;;11.00;99.90;;;;;;10533623;28;20063;-63
2022/01/03 04:57:39;;;;;;;8.20;1.38;;;11.00;99.90;;;;;;10530221;28;20013;-61
2022/01/03 05:02:40;;;;;;;8.57;1.52;;;11.00;99.90;;;;;;10515684;28;20048;-64
2022/01/03 05:07:41;;;;;;;11.30;1.30;;;11.00;99.90;;;;;;10516358;28;20085;-65
2022/01/03 05:12:41;;;;;;;7.00;1.50;;;11.00;99.90;;;;;;10538664;28;20504;-65
2022/01/03 05:17:42;;;;;;;7.32;1.45;;;11.00;99.90;;;;;;10532697;28;20039;-66
2022/01/03 05:22:43;;;;;;;9.88;1.70;;;11.00;99.90;;;;;;10539797;28;20024;-61
2022/01/03 05:27:44;;;;;;;11.25;2.10;;;11.00;99.90;;;;;;10534276;28;20099;-63
2022/01/03 05:32:45;;;;;;;11.48;1.80;;;11.00;99.90;;;;;;10530002;28;20108;-64
2022/01/03 05:37:46;;;;;;;10.90;1.75;;;11.00;99.90;;;;;;10529456;28;20410;-63
2022/01/03 05:42:46;;;;;;;8.10;1.63;;;11.00;99.90;;;;;;10533970;28;20528;-61
2022/01/03 05:47:47;;;;;;;8.30;1.83;;;11.00;99.90;;;;;;10532795;28;20077;-63
2022/01/03 05:52:48;;;;;;;9.55;1.17;;;10.90;99.90;;;;;;10508814;28;20032;-65
2022/01/03 05:57:49;;;;;;;8.60;1.33;;;11.00;99.90;;;;;;10530242;28;20107;-64
2022/01/03 06:02:54;;;;;;;9.82;1.85;;;10.90;99.90;;;;;;10528678;28;20517;-63
2022/01/03 06:07:55;;;;;;;13.18;2.17;;;10.90;99.90;;;;;;10518306;28;20024;-63
2022/01/03 06:12:56;;;;;;;7.22;1.48;;;10.90;99.90;;;;;;10537700;28;20032;-64
2022/01/03 06:17:56;;;;;;;7.35;1.73;;;10.90;99.90;;;;;;10518033;28;20039;-62
2022/01/03 06:22:57;;;;;;;8.10;2.03;;;10.90;99.90;;;;;;10526701;28;20028;-63
2022/01/03 06:27:58;;;;;;;7.30;1.40;;;10.90;99.90;;;;;;10530889;28;20550;-63
2022/01/03 06:32:59;;;;;;;9.88;1.95;;;10.90;99.90;;;;;;10531246;28;20382;-64
2022/01/03 06:38:00;;;;;;;7.95;1.85;;;10.80;99.90;;;;;;10517226;28;20035;-60
2022/01/03 06:43:01;;;;;;;11.60;1.98;;;10.80;99.90;;;;;;10531471;28;20127;-62
2022/01/03 06:48:02;;;;;;;10.93;1.80;;;10.80;99.90;;;;;;10530571;28;20056;-62
2022/01/03 06:53:03;;;;;;;9.77;1.83;;;10.80;99.90;;;;;;10530160;28;20137;-65
2022/01/03 06:58:03;;;;;;;9.95;1.95;;;10.80;99.90;;;;;;10526328;28;20017;-62
2022/01/03 07:03:04;;;;;;;10.73;1.77;;;10.80;99.90;;;;;;10519016;28;20048;-65
2022/01/03 07:08:05;;;;;;;9.38;1.55;;;10.80;99.90;;;;;;10512821;28;20057;-63
2022/01/03 07:13:06;;;;;;;7.43;1.27;;;10.80;99.90;;;;;;10533096;28;20383;-62
2022/01/03 07:23:26;;;;;;;6.70;1.85;;;10.80;99.90;;;;;;10523970;28;20116;-64
2022/01/03 07:28:27;;;;;;;8.95;1.27;;;10.80;99.90;;;;;;10527645;28;20024;-64
2022/01/03 07:33:28;;;;;;;9.93;1.63;;;10.80;99.90;;;;;;10527422;28;20039;-65
2022/01/03 07:38:28;;;;;;;11.50;2.22;;;10.80;99.90;;;;;;10527568;28;20052;-63
2022/01/03 07:43:30;;;;;;;13.55;1.92;;;10.80;99.90;;;;;;10528993;28;20032;-65
2022/01/03 07:48:31;;;;;;;6.93;1.75;;;10.80;99.90;;;;;;10526832;28;20020;-63
2022/01/03 07:53:31;;;;;;;12.27;2.55;;;10.80;99.90;;;;;;10490017;28;20404;-66
2022/01/03 07:58:32;;;;;;;11.65;2.50;;;10.80;99.90;;;;;;10493095;28;20031;-66
2022/01/03 08:03:33;;;;;;;17.85;2.25;;;10.80;99.90;;;;;;10495358;28;20063;-65
2022/01/03 08:08:38;;;;;;;18.52;2.55;;;10.80;99.90;;;;;;10491932;28;20055;-71
2022/01/03 08:13:39;;;;;;;14.73;2.70;;;10.80;99.90;;;;;;10498345;28;20027;-70
2022/01/03 08:18:39;;;;;;;13.65;2.47;;;10.80;99.90;;;;;;10495025;28;20036;-65
2022/01/03 08:23:40;;;;;;;10.30;1.95;;;10.80;99.90;;;;;;10531009;28;20529;-64
2022/01/03 08:28:41;;;;;;;9.35;1.52;;;10.80;99.90;;;;;;10535904;28;20020;-65
2022/01/03 08:33:43;;;;;;;7.53;1.92;;;10.80;99.90;;;;;;10536137;28;20034;-63
2022/01/03 08:38:44;;;;;;;9.77;2.53;;;10.80;99.90;;;;;;10522049;28;20033;-62
2022/01/03 08:43:44;;;;;;;8.43;1.77;;;10.80;99.90;;;;;;10509384;28;20036;-64
2022/01/03 08:48:45;;;;;;;10.73;1.70;;;10.80;99.90;;;;;;10519598;28;20070;-67
2022/01/03 08:53:46;;;;;;;13.90;2.28;;;10.90;99.90;;;;;;10522153;28;20437;-68
2022/01/03 08:58:47;;;;;;;11.73;2.40;;;10.90;99.90;;;;;;10513062;28;20126;-66
2022/01/03 09:03:51;;;;;;;13.48;2.63;;;10.90;99.90;;;;;;10531672;28;20136;-67
2022/01/03 09:08:52;;;;;;;13.55;2.30;;;11.00;99.90;;;;;;10499255;28;20476;-61
2022/01/03 09:13:52;;;;;;;12.13;2.20;;;10.90;99.90;;;;;;10532405;28;20024;-68
2022/01/03 09:18:53;;;;;;;7.72;1.80;;;10.90;99.90;;;;;;10519012;28;20027;-66
2022/01/03 09:24:16;;;;;;;11.00;2.10;;;11.00;99.90;;;;;;10526918;28;20084;-65
2022/01/03 09:29:17;;;;;;;13.35;2.20;;;11.00;99.90;;;;;;10531035;28;20036;-76
2022/01/03 09:34:18;;;;;;;17.00;2.55;;;11.00;99.90;;;;;;10515767;28;20048;-64
2022/01/03 09:39:19;;;;;;;11.60;2.20;;;11.00;99.90;;;;;;10521502;28;20115;-61
2022/01/03 09:44:21;;;;;;;16.58;2.03;;;11.10;99.90;;;;;;10532272;28;20401;-60
2022/01/03 09:49:24;;;;;;;10.50;1.80;;;11.10;99.90;;;;;;10517234;28;20024;-60
2022/01/03 09:54:24;;;;;;;8.98;2.00;;;11.10;99.90;;;;;;10530743;28;20497;-61
2022/01/03 09:59:26;;;;;;;14.18;2.08;;;11.10;99.90;;;;;;10517399;28;20072;-64
2022/01/03 10:04:27;;;;;;;12.65;2.58;;;11.10;99.90;;;;;;10527320;28;20413;-66
2022/01/03 10:09:28;;;;;;;9.93;2.10;;;11.10;99.90;;;;;;10513780;28;20055;-59
2022/01/03 10:14:29;;;;;;;10.13;2.30;;;11.10;99.90;;;;;;10529958;28;20066;-66
2022/01/03 10:19:30;;;;;;;10.52;2.58;;;11.10;99.90;;;;;;10515881;28;20123;-61
2022/01/03 10:24:33;;;;;;;11.55;2.50;;;11.20;99.90;;;;;;10526230;28;20124;-64
2022/01/03 10:29:35;;;;;;;18.90;2.20;;;11.20;99.90;;;;;;10529426;28;20027;-66
2022/01/03 10:34:36;;;;;;;10.63;2.13;;;11.20;99.90;;;;;;10525257;28;20103;-64
2022/01/03 10:39:37;;;;;;;9.07;1.83;;;11.20;99.90;;;;;;10529784;28;20020;-63
2022/01/03 10:44:42;;;;;;;9.77;2.22;;;11.30;99.90;;;;;;10528972;28;20482;-65
2022/01/03 10:49:45;;;;;;;8.00;1.65;;;11.30;99.90;;;;;;10527807;28;20031;-65
2022/01/03 10:55:11;;;;;;;11.80;2.42;;;11.40;99.90;;;;;;10519855;28;20027;-64
2022/01/03 11:00:18;;;;;;;16.35;2.50;;;11.50;99.90;;;;;;10511046;28;20056;-65
2022/01/03 11:05:37;;;;;;;12.70;2.50;;;11.50;99.90;;;;;;10506857;28;20053;-67
2022/01/03 11:10:44;;;;;;;20.63;3.90;;;11.60;99.90;;;;;;10529680;28;20024;-62
2022/01/03 11:15:53;;;;;;;12.73;2.38;;;11.60;99.90;;;;;;10522602;28;20078;-60
2022/01/03 11:21:05;;;;;;;14.05;1.95;;;11.60;99.90;;;;;;10491671;28;20020;-62
2022/01/03 11:26:08;;;;;;;9.30;1.80;;;11.60;99.90;;;;;;10530644;28;20085;-61
2022/01/03 11:31:11;;;;;;;16.33;1.65;;;11.60;99.90;;;;;;10524939;28;20461;-59
2022/01/03 11:36:12;;;;;;;8.10;1.58;;;11.60;99.90;;;;;;10517431;28;20020;-61
2022/01/03 11:41:13;;;;;;;12.90;2.25;;;11.70;99.90;;;;;;10528813;28;20493;-63
2022/01/03 11:46:14;;;;;;;9.57;1.75;;;11.70;99.90;;;;;;10518130;28;20494;-58
2022/01/03 11:51:15;;;;;;;8.50;2.20;;;11.70;99.90;;;;;;10508414;28;20127;-61
2022/01/03 11:56:20;;;;;;;9.85;1.75;;;11.70;99.90;;;;;;10526775;28;20081;-64
2022/01/03 12:06:45;;;;;;;11.98;2.08;;;11.70;99.90;;;;;;10504712;28;20056;-63
2022/01/03 12:11:53;;;;;;;14.20;2.38;;;11.80;99.90;;;;;;10532569;28;20378;-59
2022/01/03 12:17:02;;;;;;;12.65;2.50;;;11.80;99.90;;;;;;10514796;28;20431;-64
2022/01/03 12:22:11;;;;;;;8.38;2.05;;;11.90;99.90;;;;;;10518122;28;20035;-63
2022/01/03 12:27:14;;;;;;;12.93;2.20;;;11.90;99.90;;;;;;10506846;28;20043;-69
2022/01/03 12:32:15;;;;;;;16.30;2.92;;;12.00;99.90;;;;;;10527502;28;20278;-62
2022/01/03 12:37:16;;;;;;;15.68;3.00;;;12.10;99.90;;;;;;10513406;28;20063;-61
2022/01/03 12:42:59;;;;;;;14.75;2.38;;;12.30;99.90;;;;;;10520622;28;20127;-61
2022/01/03 12:48:09;;;;;;;15.40;2.17;;;12.30;99.90;;;;;;10496881;28;20267;-63
2022/01/03 12:53:31;;;;;;;9.68;2.30;;;12.40;99.90;;;;;;10516668;28;20042;-66
2022/01/03 12:58:32;;;;;;;11.80;2.05;;;12.40;99.90;;;;;;10499851;28;20070;-67
2022/01/03 13:03:39;;;;;;;12.82;2.90;;;12.40;99.90;;;;;;10519096;28;20052;-57
2022/01/03 13:08:59;;;;;;;17.52;2.33;;;12.40;99.90;;;;;;10519351;28;20074;-66
2022/01/03 13:14:14;;;;;;;7.35;2.00;;;12.50;99.90;;;;;;10529641;28;20406;-69
2022/01/03 13:19:30;;;;;;;13.90;2.67;;;12.40;99.90;;;;;;10502178;28;20024;-67
2022/01/03 13:24:32;;;;;;;12.93;2.90;;;12.30;99.90;;;;;;10501462;28;20070;-65
2022/01/03 13:29:44;;;;;;;12.25;1.92;;;12.30;99.90;;;;;;10525951;28;20370;-65
2022/01/03 13:34:47;;;;;;;11.88;2.50;;;12.20;99.90;;;;;;10519386;28;20091;-64
2022/01/03 13:39:49;;;;;;;9.60;2.28;;;12.20;99.90;;;;;;10532759;28;20430;-65
2022/01/03 13:49:53;;;;;;;11.77;2.20;;;12.10;99.90;;;;;;10533559;28;20383;-60
2022/01/03 13:54:59;;;;;;;11.50;2.90;;;12.10;99.90;;;;;;10504305;28;20028;-62
2022/01/03 14:00:00;;;;;;;12.82;2.97;;;12.00;99.90;;;;;;10517297;28;20016;-60
2022/01/03 14:05:06;;;;;;;9.80;2.25;;;12.00;99.90;;;;;;10523127;28;20057;-65
2022/01/03 14:10:06;;;;;;;13.93;3.20;;;12.00;99.90;;;;;;10525333;28;20143;-63
2022/01/03 14:15:07;;;;;;;16.38;3.13;;;11.80;99.90;;;;;;10536287;28;20119;-59
2022/01/03 14:20:09;;;;;;;14.05;3.13;;;11.90;99.90;;;;;;10520447;28;20498;-60
2022/01/03 14:25:13;;;;;;;11.13;2.33;;;11.90;99.90;;;;;;10531949;28;20130;-59
2022/01/03 14:30:14;;;;;;;9.90;2.38;;;11.90;99.90;;;;;;10526647;28;20016;-59
2022/01/03 14:35:31;;;;;;;7.95;2.53;;;11.80;99.90;;;;;;10534637;28;20024;-60
2022/01/03 14:40:44;;;;;;;9.90;2.45;;;11.80;99.90;;;;;;10531779;28;20430;-59
2022/01/03 14:45:44;;;;;;;17.48;2.45;;;11.80;99.90;;;;;;10516365;28;20061;-62
2022/01/03 14:50:45;;;;;;;19.35;2.85;;;11.70;99.90;;;;;;10524236;28;20020;-59
2022/01/03 14:55:46;;;;;;;10.95;2.03;;;11.70;99.90;;;;;;10528281;28;20024;-57
2022/01/03 15:00:48;;;;;;;15.35;2.22;;;11.60;99.90;;;;;;10507079;28;20050;-64
2022/01/03 15:05:50;;;;;;;12.30;2.53;;;11.60;99.90;;;;;;10495295;28;20090;-61
2022/01/03 15:10:51;;;;;;;10.68;2.15;;;11.70;99.90;;;;;;10509098;28;20039;-62
2022/01/03 15:15:52;;;;;;;11.05;2.50;;;11.70;99.90;;;;;;10520603;28;20427;-64
2022/01/03 15:20:54;;;;;;;11.20;2.63;;;11.70;99.90;;;;;;10499451;28;20016;-66
2022/01/03 15:25:55;;;;;;;12.05;2.15;;;11.60;99.90;;;;;;10501126;28;20040;-60
2022/01/03 15:30:58;;;;;;;16.48;2.70;;;11.60;99.90;;;;;;10500737;28;20030;-58
2022/01/03 15:36:01;;;;;;;12.80;2.20;;;11.50;99.90;;;;;;10509311;28;20122;-59
2022/01/03 15:41:02;;;;;;;7.82;2.38;;;11.50;99.90;;;;;;10528724;28;20054;-59
2022/01/03 15:46:02;;;;;;;12.13;2.50;;;11.50;99.90;;;;;;10517160;28;20101;-60
2022/01/03 15:51:03;;;;;;;8.75;1.92;;;11.50;99.90;;;;;;10528145;28;20024;-62
2022/01/03 15:56:04;;;;;;;11.80;2.22;;;11.50;99.90;;;;;;10527199;28;20581;-67
2022/01/03 16:01:05;;;;;;;12.32;2.10;;;11.40;99.90;;;;;;10522591;28;20410;-60
2022/01/03 16:06:06;;;;;;;10.02;2.22;;;11.40;99.90;;;;;;10508483;28;20037;-60
2022/01/03 16:11:08;;;;;;;8.15;1.83;;;11.40;99.90;;;;;;10517317;28;20336;-65
2022/01/03 16:16:09;;;;;;;10.80;1.73;;;11.40;99.90;;;;;;10511379;28;20513;-59
2022/01/03 16:21:10;;;;;;;12.23;2.03;;;11.30;99.90;;;;;;10514799;28;20058;-58
2022/01/03 16:26:11;;;;;;;7.78;1.60;;;11.30;99.90;;;;;;10521794;28;20028;-68
2022/01/03 16:31:12;;;;;;;11.13;2.17;;;11.30;99.90;;;;;;10517104;28;20040;-67
2022/01/03 16:36:21;;;;;;;8.43;1.83;;;10.90;99.90;;;;;;10521196;28;20484;-69
2022/01/03 16:41:22;;;;;;;8.13;1.85;;;11.30;99.90;;;;;;10499346;28;20123;-67
2022/01/03 16:46:23;;;;;;;5.55;1.60;;;11.20;99.90;;;;;;10523325;28;20020;-68
2022/01/03 16:51:23;;;;;;;7.85;1.92;;;11.20;99.90;;;;;;10533547;28;20040;-72
2022/01/03 16:56:24;;;;;;;6.32;1.60;;;11.20;99.90;;;;;;10517306;28;20027;-66
2022/01/03 17:01:26;;;;;;;6.07;1.80;;;11.20;99.90;;;;;;10515314;28;20052;-68
2022/01/03 17:06:27;;;;;;;5.25;1.65;;;11.20;99.90;;;;;;10518200;28;20028;-72
2022/01/03 17:11:27;;;;;;;7.72;1.75;;;11.10;99.90;;;;;;10528104;28;20386;-65
2022/01/03 17:16:28;;;;;;;8.52;2.25;;;11.10;99.90;;;;;;10514245;28;20036;-68
2022/01/03 17:21:29;;;;;;;11.57;2.13;;;11.10;99.90;;;;;;10505180;28;20079;-73
2022/01/03 17:26:30;;;;;;;6.70;1.60;;;11.10;99.90;;;;;;10530197;28;20453;-71
2022/01/03 17:31:30;;;;;;;11.60;2.45;;;11.20;99.90;;;;;;10532297;28;20050;-66
2022/01/03 17:36:31;;;;;;;9.18;1.55;;;11.10;99.90;;;;;;10531679;28;20446;-64
2022/01/03 17:41:32;;;;;;;8.93;1.90;;;11.10;99.90;;;;;;10533860;28;20139;-66
2022/01/03 17:46:34;;;;;;;9.90;1.55;;;11.10;99.90;;;;;;10513741;28;20044;-65
2022/01/03 17:51:34;;;;;;;7.30;1.50;;;11.10;99.90;;;;;;10519989;28;20391;-67
2022/01/03 17:56:35;;;;;;;6.18;1.17;;;11.10;99.90;;;;;;10509866;28;20027;-60
2022/01/03 18:01:36;;;;;;;4.35;1.20;;;11.10;99.90;;;;;;10497223;28;20114;-61
2022/01/03 18:06:37;;;;;;;4.38;1.08;;;11.10;99.90;;;;;;10500061;28;20101;-66
2022/01/03 18:11:38;;;;;;;6.97;1.63;;;11.00;99.90;;;;;;10523930;28;20500;-64
2022/01/03 18:16:39;;;;;;;6.47;2.13;;;11.00;99.90;;;;;;10520744;28;20073;-65
2022/01/03 18:21:39;;;;;;;4.85;1.17;;;11.00;99.90;;;;;;10501224;28;20127;-68
2022/01/03 18:26:40;;;;;;;4.40;1.35;;;11.00;99.90;;;;;;10508005;28;20130;-71
2022/01/03 18:31:41;;;;;;;4.53;1.30;;;11.00;99.90;;;;;;10503433;28;20032;-68
2022/01/03 18:36:42;;;;;;;5.53;1.20;;;10.90;99.90;;;;;;10503929;28;20475;-62
2022/01/03 18:41:42;;;;;;;6.20;1.40;;;10.90;99.90;;;;;;10518687;28;20040;-60
2022/01/03 18:46:43;;;;;;;5.25;1.55;;;10.90;99.90;;;;;;10522282;28;20024;-62
2022/01/03 18:51:44;;;;;;;8.07;1.52;;;11.00;99.90;;;;;;10525002;28;20031;-62
2022/01/03 18:56:46;;;;;;;4.10;1.20;;;11.00;99.90;;;;;;10527480;28;20020;-60
2022/01/03 19:01:46;;;;;;;5.82;1.08;;;10.90;99.90;;;;;;10503988;28;20056;-60
2022/01/03 19:06:47;;;;;;;4.25;1.27;;;10.90;99.90;;;;;;10505452;28;20035;-60
2022/01/03 19:11:48;;;;;;;4.50;1.20;;;10.90;99.90;;;;;;10518917;28;20028;-62
2022/01/03 19:16:49;;;;;;;7.03;1.17;;;10.90;99.90;;;;;;10505237;28;20429;-63
2022/01/03 19:21:49;;;;;;;5.32;1.08;;;10.90;99.90;;;;;;10503495;28;20054;-65
2022/01/03 19:26:51;;;;;;;5.20;1.30;;;10.90;99.90;;;;;;10502683;28;20031;-64
2022/01/03 19:31:52;;;;;;;4.88;1.17;;;10.90;99.90;;;;;;10511560;28;20062;-64
2022/01/03 19:42:13;;;;;;;5.20;1.65;;;10.80;99.90;;;;;;10503221;28;20391;-66
2022/01/03 19:47:16;;;;;;;5.43;1.23;;;10.90;99.90;;;;;;10502680;28;20027;-65
2022/01/03 19:52:17;;;;;;;4.72;1.25;;;10.80;99.90;;;;;;10506968;28;20165;-66
2022/01/03 19:57:18;;;;;;;5.35;1.40;;;10.80;99.90;;;;;;10511787;28;20100;-66
2022/01/03 20:02:18;;;;;;;5.53;1.10;;;10.80;99.90;;;;;;10506989;28;20052;-64
2022/01/03 20:07:20;;;;;;;6.22;2.13;;;11.00;99.90;;;;;;10508349;28;20108;-64
2022/01/03 20:12:20;;;;;;;5.68;1.30;;;10.80;99.90;;;;;;10516869;28;20036;-64
2022/01/03 20:17:21;;;;;;;5.07;1.13;;;10.80;99.90;;;;;;10504636;28;20032;-66
2022/01/03 20:22:22;;;;;;;5.22;1.50;;;10.80;99.90;;;;;;10521980;28;20032;-65
2022/01/03 20:27:23;;;;;;;6.85;1.42;;;10.80;99.90;;;;;;10520112;28;20032;-66
2022/01/03 20:32:24;;;;;;;4.07;1.23;;;10.70;99.90;;;;;;10518689;28;20046;-66
2022/01/03 20:37:25;;;;;;;5.05;1.20;;;10.70;99.90;;;;;;10520016;28;20035;-65
2022/01/03 20:42:28;;;;;;;5.35;1.20;;;10.70;99.90;;;;;;10518654;28;20091;-62
2022/01/03 20:47:29;;;;;;;3.08;1.13;;;10.70;99.90;;;;;;10508427;28;20028;-66
2022/01/03 20:52:30;;;;;;;5.78;1.70;;;10.70;99.90;;;;;;10506105;28;20025;-65
2022/01/03 20:57:31;;;;;;;5.40;1.20;;;10.70;99.90;;;;;;10513957;28;20043;-65
2022/01/03 21:02:32;;;;;;;4.85;1.75;;;10.70;99.90;;;;;;10502823;28;20052;-65
2022/01/03 21:07:32;;;;;;;5.53;1.38;;;10.70;99.90;;;;;;10511951;28;20046;-67
2022/01/03 21:12:34;;;;;;;5.88;1.20;;;10.70;99.90;;;;;;10506882;28;20158;-65
2022/01/03 21:17:35;;;;;;;8.40;1.42;;;10.70;99.90;;;;;;10496687;28;20032;-66
2022/01/03 21:22:38;;;;;;;4.30;1.20;;;10.60;99.90;;;;;;10514830;28;20016;-64
2022/01/03 21:27:40;;;;;;;7.93;1.80;;;10.70;99.90;;;;;;10511833;28;20042;-62
2022/01/03 21:32:40;;;;;;;7.20;1.45;;;10.60;99.90;;;;;;10513928;28;20328;-63
2022/01/03 21:37:41;;;;;;;6.22;1.48;;;10.60;99.90;;;;;;10514590;28;20024;-65
2022/01/03 21:42:42;;;;;;;5.40;1.63;;;10.60;99.90;;;;;;10518448;28;20040;-62
2022/01/03 21:47:43;;;;;;;4.88;1.40;;;10.60;99.90;;;;;;10520059;28;20486;-62
2022/01/03 21:52:43;;;;;;;2.92;1.20;;;10.60;99.90;;;;;;10519536;28;20039;-63
2022/01/03 21:57:45;;;;;;;7.43;1.83;;;10.60;99.90;;;;;;10502392;28;20013;-61
2022/01/03 22:02:47;;;;;;;4.55;1.20;;;10.60;99.90;;;;;;10511005;28;20070;-63
2022/01/03 22:07:48;;;;;;;4.97;1.40;;;10.60;99.90;;;;;;10515439;28;20762;-63
2022/01/03 22:12:49;;;;;;;6.22;1.90;;;10.50;99.90;;;;;;10516405;28;20025;-65
2022/01/03 22:17:49;;;;;;;4.97;2.00;;;10.50;99.90;;;;;;10516587;28;20028;-64
2022/01/03 22:22:50;;;;;;;4.25;2.25;;;10.50;99.90;;;;;;10501551;28;20036;-61
2022/01/03 22:27:51;;;;;;;5.18;1.80;;;10.50;99.90;;;;;;10520782;28;20516;-58
2022/01/03 22:32:52;;;;;;;2.13;1.60;;;10.50;99.90;;;;;;10512193;28;20126;-58
2022/01/03 22:37:53;;;;;;;6.65;2.22;;;10.50;99.90;;;;;;10515230;28;20643;-70
2022/01/03 22:42:54;;;;;;;7.63;2.17;;;10.50;99.90;;;;;;10499175;28;20040;-71
2022/01/03 22:47:55;;;;;;;5.90;2.58;;;10.50;99.90;;;;;;10507729;28;20032;-68
2022/01/03 22:52:55;;;;;;;4.90;2.38;;;10.50;99.90;;;;;;10506432;28;20036;-69
2022/01/03 22:57:56;;;;;;;5.97;2.38;;;10.50;99.90;;;;;;10499672;28;20418;-66
2022/01/03 23:02:57;;;;;;;8.40;2.85;;;10.40;99.90;;;;;;10515426;28;20480;-66
2022/01/03 23:07:58;;;;;;;5.68;2.10;;;10.40;99.90;;;;;;10520297;28;20043;-64
2022/01/03 23:12:59;;;;;;;8.48;3.42;;;10.40;99.90;;;;;;10512868;28;20036;-62
2022/01/03 23:18:00;;;;;;;9.80;2.72;;;10.40;99.90;;;;;;10528144;28;20088;-65
2022/01/03 23:23:00;;;;;;;4.32;3.10;;;10.40;99.90;;;;;;10537186;28;20390;-66
2022/01/03 23:28:01;;;;;;;6.03;2.65;;;10.40;99.90;;;;;;10514384;28;20029;-61
2022/01/03 23:33:02;;;;;;;7.47;3.22;;;10.40;99.90;;;;;;10492445;28;20020;-65
2022/01/03 23:38:04;;;;;;;8.88;3.05;;;10.40;99.90;;;;;;10514624;28;20029;-66
2022/01/03 23:43:04;;;;;;;7.18;2.63;;;10.40;99.90;;;;;;10526564;28;20382;-64
2022/01/03 23:48:07;;;;;;;6.50;2.47;;;10.40;99.90;;;;;;10514109;28;20670;-64
2022/01/03 23:53:08;;;;;;;7.22;3.30;;;10.40;99.90;;;;;;10526909;28;20036;-66
2022/01/03 23:58:09;;;;;;;5.43;2.22;;;10.40;99.90;;;;;;10508750;28;20478;-61
